Time;durP1;ratioP1;P1;durP2;ratioP2;P2;SDS_P1;SDS_P2;PMS_P1;PMS_P2;Temp;Humidity;BMP_temperature;BMP_pressure;BME280_temperature;BME280_humidity;BME280_pressure;Samples;Min_cycle;Max_cycle;Signal;HPM_P1;HPM_P2
2021/07/15 00:00:50;;;;;;;24.37;17.82;;;;;;;22.24;80.10;100041.13;1742104;82;21089;-75
2021/07/15 00:03:20;;;;;;;23.12;18.23;;;;;;;22.26;81.48;100039.17;1733608;82;21679;-74
2021/07/15 00:05:49;;;;;;;;;;;;;;;22.25;80.52;100045.53;1715402;82;21034;-75
2021/07/15 00:08:19;;;;;;;25.15;18.05;;;;;;;22.22;80.73;100041.75;1712457;83;21002;-70
2021/07/15 00:10:53;;;;;;;23.90;15.75;;;;;;;22.20;81.75;100042.34;1712810;83;21081;-72
2021/07/15 00:13:22;;;;;;;22.90;16.60;;;;;;;22.18;80.21;100038.98;1712605;83;22125;-71
2021/07/15 00:15:52;;;;;;;26.52;18.10;;;;;;;22.18;81.74;100033.61;1712810;83;21088;-71
2021/07/15 00:18:26;;;;;;;12.53;9.68;;;;;;;22.16;81.66;100031.55;1713139;83;22196;-72
2021/07/15 00:20:54;;;;;;;22.48;17.05;;;;;;;22.15;78.77;100033.86;1712509;83;21022;-71
2021/07/15 00:23:23;;;;;;;21.73;17.67;;;;;;;22.14;81.18;100034.85;1712740;83;21650;-71
2021/07/15 00:25:52;;;;;;;18.95;15.43;;;;;;;22.13;82.05;100035.35;1712694;83;21535;-70
2021/07/15 00:28:19;;;;;;;25.25;18.10;;;;;;;22.12;82.60;100027.43;1712758;83;21156;-71
2021/07/15 00:30:46;;;;;;;21.20;16.90;;;;;;;22.10;82.38;100034.75;1713047;83;22006;-71
2021/07/15 00:33:13;;;;;;;25.20;18.75;;;;;;;22.07;80.70;100031.02;1712924;83;21084;-74
2021/07/15 00:35:41;;;;;;;22.37;18.20;;;;;;;22.08;82.49;100030.02;1712762;83;21057;-72
2021/07/15 00:38:08;;;;;;;25.95;17.92;;;;;;;22.07;83.08;100033.69;1712871;83;21405;-72
2021/07/15 00:40:37;;;;;;;23.80;18.20;;;;;;;22.05;83.49;100031.13;1712473;83;21088;-73
2021/07/15 00:43:06;;;;;;;26.35;18.85;;;;;;;22.03;83.84;100032.25;1712907;83;21101;-73
2021/07/15 00:45:33;;;;;;;13.48;12.13;;;;;;;22.00;83.77;100031.53;1712559;83;21566;-71
2021/07/15 00:48:00;;;;;;;21.10;17.02;;;;;;;21.96;83.22;100032.77;1712799;83;21136;-72
2021/07/15 00:50:30;;;;;;;18.67;12.85;;;;;;;21.91;82.89;100025.62;1712609;83;21105;-72
2021/07/15 00:52:57;;;;;;;25.57;17.77;;;;;;;21.88;81.19;100024.55;1712644;83;21077;-71
2021/07/15 00:55:36;;;;;;;24.92;18.85;;;;;;;21.87;83.06;100025.52;1712794;83;21072;-72
2021/07/15 00:58:06;;;;;;;22.82;16.50;;;;;;;21.86;83.17;100030.53;1678009;85;21122;-71
2021/07/15 01:00:37;;;;;;;22.15;18.32;;;;;;;21.84;82.66;100033.84;1678289;85;21091;-70
2021/07/15 01:03:06;;;;;;;26.12;19.35;;;;;;;21.84;83.48;100027.14;1678250;85;21032;-71
2021/07/15 01:05:36;;;;;;;16.85;12.30;;;;;;;21.83;83.45;100037.48;1712785;83;21096;-72
2021/07/15 01:08:05;;;;;;;26.42;18.42;;;;;;;21.81;83.17;100035.91;1677521;85;21327;-72
2021/07/15 01:10:42;;;;;;;20.82;16.05;;;;;;;21.78;83.31;100034.34;1712804;83;22214;-75
2021/07/15 01:13:37;;;;;;;20.95;15.58;;;;;;;21.79;83.10;100040.93;1711744;82;21504;-74
2021/07/15 01:16:14;;;;;;;24.00;18.37;;;;;;;21.79;84.42;100039.59;1709007;83;21030;-75
2021/07/15 01:18:53;;;;;;;15.50;13.58;;;;;;;21.73;84.54;100038.77;1711427;82;21070;-76
2021/07/15 01:22:01;;;;;;;25.68;17.27;;;;;;;21.73;84.36;100040.10;1711041;82;21062;-73
2021/07/15 01:24:47;;;;;;;28.07;20.17;;;;;;;21.72;85.17;100044.27;1711045;82;21055;-78
2021/07/15 01:27:40;;;;;;;25.80;19.37;;;;;;;21.71;85.42;100041.22;1710957;83;21054;-74
2021/07/15 01:30:19;;;;;;;16.40;12.23;;;;;;;21.67;85.83;100038.44;1711231;83;21591;-76
2021/07/15 01:33:16;;;;;;;25.37;18.80;;;;;;;21.65;84.94;100041.73;1711237;83;21572;-74
2021/07/15 01:36:08;;;;;;;23.10;17.52;;;;;;;21.63;85.18;100049.08;1711442;83;21156;-74
2021/07/15 01:38:42;;;;;;;25.48;17.60;;;;;;;21.62;85.22;100039.32;1711047;82;21070;-72
2021/07/15 01:41:21;;;;;;;24.25;17.98;;;;;;;21.61;84.64;100041.66;1711216;83;21054;-73
2021/07/15 01:43:52;;;;;;;;;;;;;;;21.61;85.90;100038.97;1713860;82;21576;-73
2021/07/15 01:46:19;;;;;;;19.00;12.35;;;;;;;21.57;85.07;100040.55;1710585;83;20481;-74
2021/07/15 01:48:47;;;;;;;20.88;17.48;;;;;;;21.54;82.66;100047.52;1711025;83;21961;-73
2021/07/15 01:51:14;;;;;;;27.27;19.90;;;;;;;21.55;85.03;100045.19;1710622;83;21025;-73
2021/07/15 01:53:42;;;;;;;23.73;18.10;;;;;;;21.54;83.79;100043.50;1711538;83;21081;-74
2021/07/15 01:56:10;;;;;;;26.90;19.52;;;;;;;21.54;85.49;100048.86;1711445;83;21070;-72
2021/07/15 01:58:39;;;;;;;23.60;17.62;;;;;;;21.52;86.07;100048.13;1710966;83;21822;-74
2021/07/15 02:01:08;;;;;;;30.10;18.60;;;;;;;21.56;86.34;100052.27;1710716;83;21840;-73
2021/07/15 02:03:36;;;;;;;32.23;19.00;;;;;;;21.56;86.88;100053.60;1710988;83;21766;-74
2021/07/15 02:06:03;;;;;;;26.33;18.70;;;;;;;21.54;86.02;100058.23;1710534;83;21121;-74
2021/07/15 02:08:30;;;;;;;29.52;20.65;;;;;;;21.56;86.95;100056.78;1710708;83;22080;-74
2021/07/15 02:10:58;;;;;;;26.15;20.20;;;;;;;21.56;87.23;100056.28;1710721;83;21061;-74
2021/07/15 02:13:27;;;;;;;23.02;16.25;;;;;;;21.55;85.59;100059.08;1731655;82;21964;-73
2021/07/15 02:15:55;;;;;;;28.17;19.15;;;;;;;21.55;86.56;100057.24;1742839;82;21128;-75
2021/07/15 02:18:23;;;;;;;15.30;10.95;;;;;;;21.46;85.88;100043.28;1742032;82;21053;-74
2021/07/15 02:20:54;;;;;;;19.05;14.68;;;;;;;21.55;82.37;100061.27;1745891;82;21104;-73
2021/07/15 02:23:22;;;;;;;32.48;20.72;;;;;;;21.56;85.06;100053.60;1742248;82;21033;-72
2021/07/15 02:25:52;;;;;;;32.40;21.73;;;;;;;21.56;84.91;100054.94;1742258;82;21195;-72
2021/07/15 02:28:22;;;;;;;36.60;25.77;;;;;;;21.55;86.20;100051.89;1743225;82;21085;-72
2021/07/15 02:30:56;;;;;;;52.37;34.33;;;;;;;21.55;87.11;100050.55;1750293;82;21104;-73
2021/07/15 02:33:26;;;;;;;42.15;28.47;;;;;;;21.52;83.99;100054.83;1750263;82;21100;-73
2021/07/15 02:35:55;;;;;;;;;;;;;;;21.53;86.66;100052.53;1752626;82;21072;-73
2021/07/15 02:38:23;;;;;;;28.75;18.02;;;;;;;21.54;85.99;100054.22;1750089;82;21035;-74
2021/07/15 02:40:52;;;;;;;38.75;24.25;;;;;;;21.57;84.65;100055.78;1757920;81;21567;-74
2021/07/15 02:43:20;;;;;;;43.10;29.05;;;;;;;21.64;86.66;100058.80;1749959;82;21093;-72
2021/07/15 02:45:49;;;;;;;37.83;21.95;;;;;;;21.66;84.81;100062.20;1750207;82;21057;-73
2021/07/15 02:48:17;;;;;;;41.42;27.45;;;;;;;21.72;85.55;100056.34;1750560;82;21035;-73
2021/07/15 02:50:46;;;;;;;31.37;21.82;;;;;;;21.75;85.76;100058.75;1747620;82;20993;-72
2021/07/15 02:53:13;;;;;;;36.73;25.08;;;;;;;21.79;82.86;100060.19;1738049;81;21104;-71
2021/07/15 02:55:52;;;;;;;40.75;27.55;;;;;;;21.85;85.48;100058.31;1739621;81;21484;-71
2021/07/15 02:58:26;;;;;;;23.20;14.40;;;;;;;21.90;84.59;100061.47;1739653;81;21571;-72
2021/07/15 03:00:57;;;;;;;33.70;23.80;;;;;;;21.98;83.66;100055.44;1735137;80;20988;-71
2021/07/15 03:03:57;;;;;;;40.58;27.82;;;;;;;22.06;84.96;100054.27;1747479;82;21102;-69
2021/07/15 03:06:37;;;;;;;31.07;20.17;;;;;;;22.13;82.58;100063.98;1682549;83;21177;-70
2021/07/15 03:09:14;;;;;;;33.58;23.62;;;;;;;22.21;81.73;100065.55;1729970;82;21048;-70
2021/07/15 03:11:47;;;;;;;38.70;26.52;;;;;;;22.33;83.74;100066.31;1750082;82;21054;-72
2021/07/15 03:14:14;;;;;;;27.00;18.17;;;;;;;22.40;83.86;100062.95;1725263;82;21045;-71
2021/07/15 03:16:44;;;;;;;34.08;24.20;;;;;;;22.49;81.26;100063.14;1729635;82;21560;-70
2021/07/15 03:19:13;;;;;;;35.08;24.02;;;;;;;22.59;83.24;100058.64;1733463;80;21139;-70
2021/07/15 03:21:43;;;;;;;25.95;17.62;;;;;;;22.70;80.79;100061.23;1750190;82;21052;-70
2021/07/15 03:24:12;;;;;;;34.65;22.80;;;;;;;22.82;81.07;100056.59;1750291;81;21031;-70
2021/07/15 03:26:40;;;;;;;29.12;18.75;;;;;;;22.94;81.28;100053.33;1721019;82;21915;-71
2021/07/15 03:29:08;;;;;;;22.30;16.15;;;;;;;23.06;79.05;100057.61;1747297;81;21681;-70
2021/07/15 03:31:35;;;;;;;31.42;20.15;;;;;;;23.18;80.35;100059.17;1739255;81;21600;-72
2021/07/15 03:34:04;;;;;;;24.32;16.30;;;;;;;23.29;79.37;100064.08;1745035;82;21053;-73
2021/07/15 03:36:33;;;;;;;34.60;23.35;;;;;;;23.41;76.89;100065.13;1741962;82;21041;-71
2021/07/15 03:39:00;;;;;;;29.57;22.05;;;;;;;23.54;79.19;100067.55;1726526;82;21116;-73
2021/07/15 03:41:27;;;;;;;25.43;16.95;;;;;;;23.64;78.65;100072.91;1765554;80;21792;-72
2021/07/15 03:43:54;;;;;;;28.00;21.68;;;;;;;23.76;78.30;100073.14;1743931;80;21076;-73
2021/07/15 03:46:23;;;;;;;28.07;19.37;;;;;;;23.90;77.64;100071.84;1744632;82;21053;-74
2021/07/15 03:48:50;;;;;;;32.10;24.57;;;;;;;24.03;73.76;100077.77;1741945;81;21088;-72
2021/07/15 03:51:19;;;;;;;33.73;24.20;;;;;;;24.16;76.69;100066.71;1700369;82;21073;-72
2021/07/15 03:53:46;;;;;;;28.47;21.62;;;;;;;24.27;76.70;100069.70;1723263;82;21142;-72
2021/07/15 03:56:15;;;;;;;32.53;21.60;;;;;;;24.40;76.58;100075.61;1735701;80;21038;-72
2021/07/15 03:58:44;;;;;;;26.80;20.90;;;;;;;24.55;76.23;100074.68;1738207;82;21627;-72
2021/07/15 04:01:14;;;;;;;26.45;18.77;;;;;;;24.66;75.12;100076.31;1706693;84;21526;-69
2021/07/15 04:03:43;;;;;;;25.65;18.67;;;;;;;24.76;73.65;100070.40;1742200;82;21034;-71
2021/07/15 04:06:12;;;;;;;19.95;15.13;;;;;;;24.90;73.95;100069.89;1740570;82;21115;-71
2021/07/15 04:08:42;;;;;;;21.90;16.77;;;;;;;25.03;68.88;100073.58;1739421;82;21009;-71
2021/07/15 04:11:09;;;;;;;26.52;16.40;;;;;;;25.15;72.11;100070.16;1742310;82;21540;-72
2021/07/15 04:13:37;;;;;;;20.57;14.80;;;;;;;25.18;70.50;100056.88;1719190;82;21050;-71
2021/07/15 04:16:35;;;;;;;27.27;17.95;;;;;;;25.37;69.01;100069.39;1711112;83;21053;-70
2021/07/15 04:19:04;;;;;;;22.52;17.25;;;;;;;25.55;70.33;100068.89;1737430;82;21974;-72
2021/07/15 04:21:32;;;;;;;22.87;16.70;;;;;;;25.73;69.03;100056.23;1736675;82;21024;-72
2021/07/15 04:24:00;;;;;;;30.15;17.32;;;;;;;25.86;66.44;100050.92;1734868;82;21053;-71
2021/07/15 04:26:27;;;;;;;25.00;16.12;;;;;;;26.00;68.79;100055.80;1738225;82;21144;-71
2021/07/15 04:28:55;;;;;;;27.30;17.40;;;;;;;26.13;65.11;100052.14;1731528;82;21041;-72
2021/07/15 04:31:43;;;;;;;25.02;17.15;;;;;;;26.33;67.37;100037.09;1729487;82;21105;-72
2021/07/15 04:34:11;;;;;;;21.15;16.00;;;;;;;26.47;66.38;100037.83;1715947;82;21043;-72
2021/07/15 04:36:38;;;;;;;24.70;16.95;;;;;;;26.60;63.53;100041.98;1742498;82;21078;-71
2021/07/15 04:39:07;;;;;;;31.50;18.35;;;;;;;26.74;65.40;100037.30;1740998;82;21057;-72
2021/07/15 04:41:35;;;;;;;30.40;14.98;;;;;;;26.87;64.21;100037.69;1712136;83;21419;-71
2021/07/15 04:44:04;;;;;;;27.15;15.75;;;;;;;26.96;62.17;100038.53;1719630;82;21042;-72
2021/07/15 04:46:31;;;;;;;25.68;15.00;;;;;;;27.10;63.57;100035.20;1735188;82;21062;-70
2021/07/15 04:48:58;;;;;;;23.98;14.33;;;;;;;27.28;61.51;100024.25;1726367;82;21100;-70
2021/07/15 04:51:25;;;;;;;20.50;13.25;;;;;;;27.54;61.76;100036.80;1729600;82;21069;-71
2021/07/15 04:53:54;;;;;;;23.92;14.20;;;;;;;27.76;60.91;100032.03;1723721;82;21042;-73
2021/07/15 04:56:21;;;;;;;21.77;13.43;;;;;;;27.99;58.12;100034.07;1712934;82;21095;-72
2021/07/15 04:58:47;;;;;;;21.33;13.40;;;;;;;28.22;59.05;100028.25;1712743;82;21057;-72
2021/07/15 05:01:15;;;;;;;21.62;13.08;;;;;;;28.44;56.41;100021.25;1723124;82;21060;-72
2021/07/15 05:03:42;;;;;;;24.98;12.37;;;;;;;28.66;56.59;100027.77;1729213;81;21071;-71
2021/07/15 05:06:09;;;;;;;24.27;12.90;;;;;;;28.90;56.58;100024.63;1731311;81;21164;-71
2021/07/15 05:08:39;;;;;;;24.50;12.30;;;;;;;29.12;53.54;100020.78;1738075;82;21029;-72
2021/07/15 05:11:07;;;;;;;28.25;12.23;;;;;;;29.28;54.43;100020.66;1739264;82;21745;-71
2021/07/15 05:13:36;;;;;;;21.75;11.75;;;;;;;29.40;53.67;100019.23;1736044;82;21072;-72
2021/07/15 05:16:05;;;;;;;28.20;13.85;;;;;;;29.58;51.46;100022.12;1736756;82;21781;-72
2021/07/15 05:18:33;;;;;;;23.25;12.18;;;;;;;29.77;52.67;100021.66;1737916;82;21010;-72
2021/07/15 05:21:00;;;;;;;26.05;12.00;;;;;;;29.94;50.10;100017.41;1733995;80;21166;-72
2021/07/15 05:23:27;;;;;;;19.85;11.70;;;;;;;30.09;50.59;100019.61;1730299;82;21009;-73
2021/07/15 05:25:56;;;;;;;20.70;11.22;;;;;;;30.38;49.34;100020.69;1735774;82;21517;-71
2021/07/15 05:28:24;;;;;;;29.80;11.45;;;;;;;30.66;47.61;100020.30;1735272;80;21086;-72
2021/07/15 05:30:53;;;;;;;25.65;12.15;;;;;;;30.96;48.82;100016.72;1748115;82;21564;-71
2021/07/15 05:33:21;;;;;;;22.22;11.60;;;;;;;31.12;47.45;100014.58;1749904;82;21112;-72
2021/07/15 05:35:48;;;;;;;25.80;12.95;;;;;;;31.23;46.32;100024.12;1750521;80;21065;-71
2021/07/15 05:38:15;;;;;;;20.50;10.88;;;;;;;31.41;47.30;100023.70;1749975;81;21508;-71
2021/07/15 05:40:42;;;;;;;17.65;10.08;;;;;;;31.49;44.33;100014.02;1750402;81;21056;-79
2021/07/15 05:43:10;;;;;;;14.55;9.83;;;;;;;31.65;44.83;100016.15;1749946;82;21057;-72
2021/07/15 05:45:38;;;;;;;20.75;10.10;;;;;;;31.73;44.34;100016.02;1751119;81;21717;-73
2021/07/15 05:48:05;;;;;;;26.30;9.65;;;;;;;31.73;43.54;100021.47;1750830;81;21097;-72
2021/07/15 05:50:33;;;;;;;17.73;9.93;;;;;;;31.88;44.32;100020.82;1748104;82;21209;-72
2021/07/15 05:53:01;;;;;;;17.92;9.00;;;;;;;32.14;42.15;100020.70;1741497;80;21828;-71
2021/07/15 05:55:28;;;;;;;16.32;8.85;;;;;;;32.28;41.22;100008.87;1737100;81;21057;-73
2021/07/15 05:57:55;;;;;;;16.80;8.90;;;;;;;32.38;41.74;100016.14;1751151;81;21096;-72
2021/07/15 06:00:22;;;;;;;18.12;8.25;;;;;;;32.64;40.62;100017.86;1742760;80;21017;-73
2021/07/15 06:02:49;;;;;;;14.87;8.05;;;;;;;32.98;40.20;100012.83;1734196;80;21021;-73
2021/07/15 06:05:16;;;;;;;13.25;8.10;;;;;;;33.17;39.26;100012.58;1749965;80;21025;-72
2021/07/15 06:07:43;;;;;;;16.90;7.72;;;;;;;33.26;38.15;100013.23;1744026;81;21037;-71
2021/07/15 06:10:12;;;;;;;13.72;7.42;;;;;;;33.26;38.55;100008.61;1759939;80;21613;-72
2021/07/15 06:12:39;;;;;;;14.18;8.23;;;;;;;33.41;37.44;100004.33;1759191;80;21069;-73
2021/07/15 06:15:09;;;;;;;13.55;7.80;;;;;;;33.54;37.60;100005.67;1750045;82;21081;-71
2021/07/15 06:17:38;;;;;;;14.20;7.92;;;;;;;33.70;37.18;100004.98;1714077;83;22043;-72
2021/07/15 06:20:12;;;;;;;17.42;8.18;;;;;;;33.93;36.17;100002.63;1744446;82;21140;-73
2021/07/15 06:22:43;;;;;;;12.55;7.00;;;;;;;34.02;36.97;100005.45;1718651;82;21076;-72
2021/07/15 06:25:13;;;;;;;12.85;7.22;;;;;;;34.02;36.16;100002.72;1739979;81;21075;-73
2021/07/15 06:27:42;;;;;;;10.68;7.40;;;;;;;34.12;35.59;100000.10;1750344;81;21076;-72
2021/07/15 06:30:13;;;;;;;14.78;6.53;;;;;;;34.19;35.95;99999.59;1751214;80;21544;-73
2021/07/15 06:32:40;;;;;;;13.22;7.15;;;;;;;34.27;34.60;99991.13;1738804;81;21068;-73
2021/07/15 06:35:08;;;;;;;13.70;7.10;;;;;;;34.53;35.37;99987.98;1750170;81;21103;-71
2021/07/15 06:37:42;;;;;;;14.05;6.58;;;;;;;34.76;34.54;99984.20;1741509;81;21557;-72
2021/07/15 06:40:12;;;;;;;18.25;7.00;;;;;;;34.69;33.94;99979.31;1747807;81;21056;-72
2021/07/15 06:45:15;;;;;;;10.82;6.72;;;;;;;34.41;34.96;99976.36;1789958;79;22746;-74
2021/07/15 06:47:42;;;;;;;13.78;7.08;;;;;;;34.39;34.14;99981.20;1722735;83;21053;-73
2021/07/15 06:50:12;;;;;;;12.15;6.17;;;;;;;34.67;34.46;99974.58;1724314;81;21129;-72
2021/07/15 06:52:40;;;;;;;13.45;6.62;;;;;;;35.05;33.04;99971.00;1719453;81;21481;-71
2021/07/15 06:55:09;;;;;;;12.05;6.60;;;;;;;35.52;33.03;99970.13;1723303;82;21564;-71
2021/07/15 06:57:35;;;;;;;10.40;6.70;;;;;;;35.63;32.78;99967.22;1723716;83;21080;-70
2021/07/15 07:00:13;;;;;;;9.93;6.67;;;;;;;35.54;31.86;99969.37;1721026;81;21225;-73
2021/07/15 07:02:41;;;;;;;10.13;6.12;;;;;;;35.75;32.89;99964.58;1721310;83;21150;-72
2021/07/15 07:05:11;;;;;;;10.18;6.70;;;;;;;36.19;31.26;99972.24;1725687;83;21017;-72
2021/07/15 07:07:39;;;;;;;13.72;6.35;;;;;;;36.28;31.16;99972.23;1725558;82;21042;-72
2021/07/15 07:10:11;;;;;;;14.43;6.30;;;;;;;36.44;31.00;99974.35;1721123;83;21117;-70
2021/07/15 07:12:38;;;;;;;12.10;6.53;;;;;;;36.12;30.78;99979.17;1720741;83;21563;-72
2021/07/15 07:15:07;;;;;;;8.30;6.25;;;;;;;35.75;32.10;99974.16;1698796;83;21091;-71
2021/07/15 07:17:35;;;;;;;8.50;5.60;;;;;;;35.83;31.31;99973.88;1723297;81;21212;-72
2021/07/15 07:20:03;;;;;;;10.63;6.28;;;;;;;36.03;30.06;99973.14;1725395;83;21051;-73
2021/07/15 07:22:30;;;;;;;10.38;6.47;;;;;;;36.38;30.96;99979.41;1724572;82;21528;-71
2021/07/15 07:24:57;;;;;;;12.47;6.72;;;;;;;36.67;29.50;99979.69;1724437;83;21100;-72
2021/07/15 07:27:27;;;;;;;20.35;7.30;;;;;;;36.53;29.71;99981.73;1721597;83;21216;-73
2021/07/15 07:29:55;;;;;;;12.35;6.22;;;;;;;36.47;30.83;99973.91;1723640;82;21041;-72
2021/07/15 07:32:23;;;;;;;12.45;6.67;;;;;;;36.56;29.79;99979.92;1721479;81;21026;-72
2021/07/15 07:34:50;;;;;;;8.35;6.08;;;;;;;36.66;29.58;99978.02;1723954;83;21587;-72
2021/07/15 07:37:18;;;;;;;13.13;6.78;;;;;;;36.47;30.19;99976.66;1723323;82;21120;-72
2021/07/15 07:39:45;;;;;;;12.47;6.75;;;;;;;35.97;30.38;99978.69;1725010;82;21105;-71
2021/07/15 07:42:15;;;;;;;10.82;6.40;;;;;;;35.83;30.50;99973.34;1721599;83;21195;-73
2021/07/15 07:44:42;;;;;;;14.28;6.83;;;;;;;36.03;29.13;99977.77;1717702;83;25642;-71
2021/07/15 07:47:10;;;;;;;16.27;7.03;;;;;;;36.06;29.65;99978.70;1713110;83;21082;-72
2021/07/15 07:49:37;;;;;;;7.33;6.10;;;;;;;36.08;29.77;99977.41;1713395;83;21579;-71
2021/07/15 07:52:05;;;;;;;11.90;6.45;;;;;;;36.19;27.62;99976.36;1712926;83;21058;-71
2021/07/15 07:54:33;;;;;;;10.58;5.78;;;;;;;36.42;28.23;99972.41;1712475;83;21803;-71
2021/07/15 07:57:00;;;;;;;10.75;6.50;;;;;;;36.83;27.54;99983.15;1712303;83;21049;-72
2021/07/15 07:59:27;;;;;;;20.80;6.50;;;;;;;37.05;27.42;99979.89;1712356;83;21151;-73
2021/07/15 08:01:54;;;;;;;13.55;6.50;;;;;;;37.13;27.46;99968.59;1712123;83;21010;-73
2021/07/15 08:04:21;;;;;;;14.50;7.08;;;;;;;37.25;27.21;99969.47;1710147;83;21807;-72
2021/07/15 08:06:49;;;;;;;14.43;7.15;;;;;;;37.41;27.38;99976.19;1709187;82;21600;-74
2021/07/15 08:09:21;;;;;;;11.97;6.62;;;;;;;37.64;27.08;99971.78;1712637;83;21045;-72
2021/07/15 08:11:47;;;;;;;19.25;7.90;;;;;;;37.69;26.79;99975.51;1712478;82;21050;-72
2021/07/15 08:14:15;;;;;;;18.17;7.72;;;;;;;37.57;27.03;99971.90;1709554;83;21054;-71
2021/07/15 08:16:43;;;;;;;20.35;7.22;;;;;;;37.28;26.93;99974.48;1711542;82;21270;-72
2021/07/15 08:19:10;;;;;;;16.12;7.12;;;;;;;36.95;28.30;99970.86;1707407;83;21002;-73
2021/07/15 08:21:37;;;;;;;11.68;6.37;;;;;;;36.80;28.23;99975.94;1713095;83;21042;-73
2021/07/15 08:24:05;;;;;;;15.88;7.67;;;;;;;36.88;27.43;99979.70;1706480;84;21041;-72
2021/07/15 08:26:33;;;;;;;10.60;6.37;;;;;;;37.13;27.73;99969.45;1709513;83;21053;-72
2021/07/15 08:29:00;;;;;;;11.48;6.33;;;;;;;37.35;27.09;99968.88;1712198;82;21781;-71
2021/07/15 08:31:26;;;;;;;15.55;6.37;;;;;;;37.66;26.30;99970.47;1712011;82;21053;-72
2021/07/15 08:33:53;;;;;;;13.28;6.50;;;;;;;37.94;26.74;99971.64;1712256;83;22005;-73
2021/07/15 08:36:21;;;;;;;12.10;6.15;;;;;;;38.18;25.52;99970.58;1712746;83;21101;-73
2021/07/15 08:38:50;;;;;;;8.98;6.05;;;;;;;38.45;26.14;99964.53;1712357;82;21148;-72
2021/07/15 08:41:17;;;;;;;11.10;6.37;;;;;;;38.72;25.41;99963.96;1712447;83;21113;-71
2021/07/15 08:43:45;;;;;;;14.45;6.25;;;;;;;38.95;24.92;99959.77;1712182;82;21074;-72
2021/07/15 08:46:14;;;;;;;13.65;6.70;;;;;;;39.16;24.28;99954.06;1712545;83;21049;-71
2021/07/15 08:48:44;;;;;;;17.70;7.00;;;;;;;39.17;23.71;99952.14;1712455;83;21750;-72
2021/07/15 08:51:12;;;;;;;15.38;6.28;;;;;;;38.91;23.61;99957.73;1708654;82;21140;-72
2021/07/15 08:53:42;;;;;;;13.18;6.17;;;;;;;38.56;24.16;99952.69;1706102;82;21887;-73
2021/07/15 08:58:54;;;;;;;25.15;7.37;;;;;;;38.46;25.03;99951.06;1709347;82;21109;-72
2021/07/15 09:01:22;;;;;;;44.98;9.78;;;;;;;38.65;24.47;99957.23;1712223;83;21109;-72
2021/07/15 09:03:50;;;;;;;25.23;7.08;;;;;;;38.29;24.65;99962.55;1712481;82;21600;-72
2021/07/15 09:06:17;;;;;;;15.28;7.70;;;;;;;37.88;24.65;99958.89;1711429;82;21720;-71
2021/07/15 09:08:45;;;;;;;16.27;7.10;;;;;;;37.52;25.28;99951.16;1711108;82;21576;-72
2021/07/15 09:11:13;;;;;;;15.72;6.45;;;;;;;37.39;26.08;99950.86;1697282;83;21066;-74
2021/07/15 09:13:41;;;;;;;9.80;6.12;;;;;;;37.44;25.84;99944.11;1709495;82;21062;-73
2021/07/15 09:16:13;;;;;;;13.23;6.30;;;;;;;37.22;25.89;99947.13;1712726;82;21022;-72
2021/07/15 09:19:03;;;;;;;9.60;5.60;;;;;;;37.41;25.07;99945.97;1703621;83;21100;-72
2021/07/15 09:21:35;;;;;;;13.03;6.03;;;;;;;37.87;24.64;99943.45;1710105;83;21041;-73
2021/07/15 09:24:17;;;;;;;10.32;5.55;;;;;;;37.85;24.70;99940.11;1711190;82;21289;-71
2021/07/15 09:26:46;;;;;;;9.23;5.45;;;;;;;37.82;24.54;99940.60;1690814;82;21625;-76
2021/07/15 09:29:15;;;;;;;14.07;6.30;;;;;;;38.02;22.42;99943.84;1701198;83;21105;-75
2021/07/15 09:31:57;;;;;;;8.28;5.95;;;;;;;38.30;22.77;99938.08;1710384;82;21051;-74
2021/07/15 09:34:28;;;;;;;11.40;5.72;;;;;;;38.19;23.60;99940.64;1710376;83;21560;-71
2021/07/15 09:36:55;;;;;;;10.85;6.30;;;;;;;37.75;24.33;99937.44;1711264;83;22139;-73
2021/07/15 09:39:25;;;;;;;13.53;6.90;;;;;;;37.65;24.92;99935.84;1709915;83;21089;-73
2021/07/15 09:42:18;;;;;;;30.68;8.70;;;;;;;37.99;24.96;99936.05;1707268;82;21128;-74
2021/07/15 09:44:49;;;;;;;10.38;6.28;;;;;;;38.47;24.31;99934.04;1708236;82;21917;-73
2021/07/15 09:47:39;;;;;;;12.55;5.97;;;;;;;38.25;23.81;99931.11;1708661;82;21077;-74
2021/07/15 09:50:23;;;;;;;11.48;6.42;;;;;;;37.89;24.10;99931.69;1711847;82;21085;-73
2021/07/15 09:52:51;;;;;;;16.25;6.62;;;;;;;37.57;24.72;99928.81;1711873;82;21570;-74
2021/07/15 09:55:23;;;;;;;10.75;6.55;;;;;;;37.58;24.84;99926.89;1710195;82;21106;-72
2021/07/15 09:58:04;;;;;;;7.45;5.55;;;;;;;37.51;25.25;99906.92;1711692;82;22679;-73
2021/07/15 10:00:43;;;;;;;14.45;6.33;;;;;;;37.43;24.36;99919.08;1711303;83;21054;-73
2021/07/15 10:03:13;;;;;;;12.40;6.75;;;;;;;37.53;25.95;99919.34;1709191;83;21090;-73
2021/07/15 10:05:53;;;;;;;13.80;5.85;;;;;;;37.58;26.08;99922.77;1701879;83;21601;-75
2021/07/15 10:08:29;;;;;;;15.48;6.15;;;;;;;37.46;25.69;99916.42;1708817;82;21113;-72
2021/07/15 10:11:19;;;;;;;21.57;7.67;;;;;;;37.44;25.17;99912.53;1710165;82;21110;-77
2021/07/15 10:14:05;;;;;;;14.58;6.35;;;;;;;37.33;25.58;99914.19;1710381;82;21644;-75
2021/07/15 10:16:42;;;;;;;16.40;7.17;;;;;;;37.11;24.54;99917.20;1710298;82;21667;-75
2021/07/15 10:19:18;;;;;;;15.03;7.20;;;;;;;37.05;25.58;99912.65;1711293;83;21057;-73
2021/07/15 10:21:46;;;;;;;13.72;6.25;;;;;;;37.14;25.54;99909.89;1705496;83;21085;-76
2021/07/15 10:24:17;;;;;;;17.95;7.42;;;;;;;37.28;25.05;99904.47;1702163;83;21033;-75
2021/07/15 10:26:47;;;;;;;12.30;6.00;;;;;;;37.30;25.49;99909.19;1712441;82;21113;-78
2021/07/15 10:29:17;;;;;;;12.45;6.78;;;;;;;37.43;25.02;99905.35;1712471;82;21068;-75
2021/07/15 10:31:46;;;;;;;16.17;6.80;;;;;;;37.81;24.67;99901.85;1712785;82;21070;-76
2021/07/15 10:34:13;;;;;;;13.03;6.12;;;;;;;37.55;25.20;99908.16;1712503;83;21058;-75
2021/07/15 10:36:40;;;;;;;13.40;5.90;;;;;;;37.40;24.51;99907.75;1712804;83;21143;-74
2021/07/15 10:39:17;;;;;;;14.65;6.22;;;;;;;37.45;24.85;99903.75;1712649;82;21565;-75
2021/07/15 10:41:53;;;;;;;13.60;6.15;;;;;;;37.25;26.37;99906.32;1712526;82;21619;-75
2021/07/15 10:44:20;;;;;;;14.73;6.40;;;;;;;37.04;26.10;99898.61;1713185;82;21070;-74
2021/07/15 10:46:51;;;;;;;11.38;5.50;;;;;;;37.06;25.82;99900.04;1719823;83;21578;-73
2021/07/15 10:49:22;;;;;;;55.88;9.58;;;;;;;37.02;26.03;99900.75;1725409;83;21576;-75
2021/07/15 10:51:53;;;;;;;14.80;6.97;;;;;;;36.74;25.33;99892.64;1725305;82;21048;-75
2021/07/15 10:54:21;;;;;;;12.85;6.83;;;;;;;36.88;26.09;99891.89;1725445;82;21144;-75
2021/07/15 10:56:53;;;;;;;9.35;6.25;;;;;;;36.86;25.50;99892.16;1725453;82;21062;-74
2021/07/15 10:59:27;;;;;;;13.65;6.58;;;;;;;36.92;25.55;99888.44;1725421;82;21021;-75
2021/07/15 11:02:01;;;;;;;14.80;7.17;;;;;;;37.06;25.52;99890.98;1723190;83;21219;-75
2021/07/15 11:04:39;;;;;;;10.58;7.08;;;;;;;36.74;24.81;99886.64;1725447;83;21080;-75
2021/07/15 11:07:33;;;;;;;13.90;6.50;;;;;;;36.59;25.42;99886.77;1726880;81;21719;-75
2021/07/15 11:10:21;;;;;;;11.43;7.25;;;;;;;36.68;25.80;99883.45;1727405;83;21044;-75
2021/07/15 11:13:00;;;;;;;12.30;6.92;;;;;;;36.72;25.83;99877.80;1727966;82;21049;-74
2021/07/15 11:15:48;;;;;;;18.57;6.97;;;;;;;36.95;25.59;99871.53;1726897;81;21018;-75
2021/07/15 11:21:30;;;;;;;10.23;6.17;;;;;;;37.22;25.04;99868.89;1715131;83;21089;-75
2021/07/15 11:24:08;;;;;;;;;;;;;;;37.07;25.58;99873.48;1727010;83;21057;-75
2021/07/15 11:26:42;;;;;;;16.17;6.87;;;;;;;37.09;25.61;99871.34;1725312;83;20167;-75
2021/07/15 11:29:12;;;;;;;22.10;7.28;;;;;;;36.86;25.18;99866.08;1724686;82;21033;-74
2021/07/15 11:31:50;;;;;;;9.65;6.03;;;;;;;37.06;25.38;99865.73;1724704;81;21034;-75
2021/07/15 11:34:40;;;;;;;9.40;6.55;;;;;;;37.26;25.25;99864.05;1718650;83;20997;-74
2021/07/15 11:37:35;;;;;;;9.93;6.05;;;;;;;37.30;24.52;99859.77;1720738;83;21041;-75
2021/07/15 11:40:08;;;;;;;13.65;6.10;;;;;;;37.52;24.64;99858.59;1720801;83;21108;-75
2021/07/15 11:42:42;;;;;;;12.63;6.45;;;;;;;37.71;24.19;99855.22;1719277;82;21078;-75
2021/07/15 11:45:10;;;;;;;16.77;6.22;;;;;;;37.66;24.41;99857.83;1724709;82;21085;-74